Time;durP1;ratioP1;P1;durP2;ratioP2;P2;SDS_P1;SDS_P2;PMS_P1;PMS_P2;Temp;Humidity;BMP_temperature;BMP_pressure;BME280_temperature;BME280_humidity;BME280_pressure;Samples;Min_cycle;Max_cycle;Signal;HPM_P1;HPM_P2
2022/10/08 00:00:06;;;;;;;29.17;21.63;;;9.60;99.90;;;;;;5015617;28;20042;-76
2022/10/08 00:02:32;;;;;;;25.90;19.57;;;9.60;99.90;;;;;;5022602;28;20100;-76
2022/10/08 00:04:57;;;;;;;26.53;21.10;;;9.60;99.90;;;;;;5035119;28;20128;-76
2022/10/08 00:07:23;;;;;;;26.33;20.40;;;9.50;99.90;;;;;;5035256;28;20029;-76
2022/10/08 00:09:49;;;;;;;26.07;19.40;;;9.50;99.90;;;;;;5034964;28;20052;-76
2022/10/08 00:12:15;;;;;;;21.63;19.13;;;9.50;99.90;;;;;;5034895;28;20026;-75
2022/10/08 00:14:41;;;;;;;25.53;20.77;;;9.50;99.90;;;;;;5032926;28;20124;-74
2022/10/08 00:17:06;;;;;;;24.87;19.07;;;9.40;99.90;;;;;;5032806;28;20108;-74
2022/10/08 00:19:32;;;;;;;25.10;20.77;;;9.40;99.90;;;;;;5032886;28;20462;-74
2022/10/08 00:21:57;;;;;;;26.07;20.43;;;9.40;99.90;;;;;;5032560;28;20057;-74
2022/10/08 00:24:23;;;;;;;23.03;19.27;;;9.40;99.90;;;;;;5032404;28;20395;-74
2022/10/08 00:26:50;;;;;;;24.53;19.50;;;9.30;99.90;;;;;;5032889;28;20017;-74
2022/10/08 00:29:18;;;;;;;24.40;18.73;;;9.30;99.90;;;;;;5032486;28;20104;-74
2022/10/08 00:31:47;;;;;;;24.07;17.93;;;9.30;99.90;;;;;;5026545;28;20466;-74
2022/10/08 00:34:22;;;;;;;23.67;18.70;;;9.30;99.90;;;;;;5017613;28;20025;-74
2022/10/08 00:36:51;;;;;;;24.80;19.40;;;9.30;99.90;;;;;;5032256;28;20377;-74
2022/10/08 00:39:19;;;;;;;24.50;18.83;;;9.30;99.90;;;;;;5032505;28;20060;-74
2022/10/08 00:41:47;;;;;;;21.63;18.43;;;9.30;99.90;;;;;;5032237;28;20037;-74
2022/10/08 00:44:52;;;;;;;19.17;17.07;;;9.30;99.90;;;;;;5032130;28;20067;-74
2022/10/08 00:47:37;;;;;;;21.53;16.77;;;9.20;99.90;;;;;;5032330;28;20025;-74
2022/10/08 00:50:25;;;;;;;;;;;9.20;99.90;;;;;;5032717;28;20124;-74
2022/10/08 00:53:06;;;;;;;23.77;17.23;;;9.20;99.90;;;;;;5012528;28;20782;-74
2022/10/08 00:55:33;;;;;;;18.17;15.90;;;9.20;99.90;;;;;;5031792;28;20104;-74
2022/10/08 00:58:03;;;;;;;20.10;16.07;;;9.20;99.90;;;;;;5031791;28;20028;-74
2022/10/08 01:00:31;;;;;;;17.27;15.20;;;9.20;99.90;;;;;;5031868;28;20033;-74
2022/10/08 01:02:58;;;;;;;16.73;14.33;;;9.20;99.90;;;;;;5033090;28;20068;-74
2022/10/08 01:05:54;;;;;;;17.23;13.90;;;9.20;99.90;;;;;;5031709;28;20029;-74
2022/10/08 01:08:40;;;;;;;17.42;13.90;;;9.20;99.90;;;;;;5031620;28;20048;-74
2022/10/08 01:11:36;;;;;;;16.60;14.03;;;9.10;99.90;;;;;;5031584;28;20107;-74
2022/10/08 01:14:11;;;;;;;21.05;14.18;;;9.10;99.90;;;;;;5026279;28;20405;-74
2022/10/08 01:17:05;;;;;;;16.45;14.68;;;9.10;99.90;;;;;;5031250;28;20108;-74
2022/10/08 01:19:37;;;;;;;16.53;14.77;;;9.10;99.90;;;;;;5023355;28;20083;-74
2022/10/08 01:22:03;;;;;;;20.00;15.83;;;9.10;99.90;;;;;;5031327;28;20360;-74
2022/10/08 01:27:40;;;;;;;18.93;15.77;;;9.10;99.90;;;;;;5031783;28;20553;-74
2022/10/08 01:30:15;;;;;;;18.67;14.80;;;9.10;99.90;;;;;;5031444;28;20034;-74
2022/10/08 01:32:56;;;;;;;18.67;15.10;;;9.10;99.90;;;;;;5019485;28;20041;-74
2022/10/08 01:35:33;;;;;;;27.57;15.87;;;9.10;99.90;;;;;;5022920;28;20118;-74
2022/10/08 01:38:05;;;;;;;16.33;14.60;;;9.10;99.90;;;;;;5030112;28;20017;-74
2022/10/08 01:40:34;;;;;;;18.43;16.20;;;9.00;99.90;;;;;;5028540;28;20018;-74
2022/10/08 01:43:04;;;;;;;21.73;15.30;;;9.10;99.90;;;;;;5022188;28;20028;-74
2022/10/08 01:45:36;;;;;;;20.53;16.00;;;9.10;99.90;;;;;;5020008;28;20026;-75
2022/10/08 01:48:05;;;;;;;22.03;15.77;;;9.10;99.90;;;;;;5017208;28;20026;-74
2022/10/08 01:50:49;;;;;;;17.97;16.03;;;9.10;99.90;;;;;;5011792;28;20087;-74
2022/10/08 01:53:18;;;;;;;21.43;15.27;;;9.10;99.90;;;;;;5011660;28;20029;-74
2022/10/08 01:55:49;;;;;;;21.50;15.87;;;9.10;99.90;;;;;;5018379;28;20022;-74
2022/10/08 01:58:27;;;;;;;18.93;15.53;;;9.10;99.90;;;;;;5014103;28;20097;-74
2022/10/08 02:00:55;;;;;;;19.67;15.40;;;9.20;99.90;;;;;;5018397;28;20014;-74
2022/10/08 02:03:21;;;;;;;20.00;15.57;;;9.20;99.90;;;;;;5024252;28;20063;-75
2022/10/08 02:05:50;;;;;;;19.33;15.13;;;9.20;99.90;;;;;;5023002;28;20043;-74
2022/10/08 02:08:17;;;;;;;20.60;16.53;;;9.20;99.90;;;;;;5030375;28;20021;-74
2022/10/08 02:10:42;;;;;;;18.87;14.90;;;9.20;99.90;;;;;;5030451;28;20098;-74
2022/10/08 02:13:10;;;;;;;20.90;16.37;;;9.30;99.90;;;;;;5030230;28;20108;-74
2022/10/08 02:15:59;;;;;;;19.60;15.53;;;9.30;99.90;;;;;;5029432;28;20461;-74
2022/10/08 02:18:40;;;;;;;21.87;15.70;;;9.30;99.90;;;;;;5030114;28;20071;-75
2022/10/08 02:21:18;;;;;;;22.43;16.10;;;9.30;99.90;;;;;;5030259;28;20033;-74
2022/10/08 02:23:54;;;;;;;17.03;13.73;;;9.40;99.90;;;;;;5016448;28;20037;-75
2022/10/08 02:26:28;;;;;;;17.23;13.57;;;9.40;99.90;;;;;;5030324;28;20113;-75
2022/10/08 02:29:01;;;;;;;17.73;14.00;;;9.30;99.90;;;;;;5010732;28;20076;-74
2022/10/08 02:31:48;;;;;;;17.80;14.00;;;9.30;99.90;;;;;;5012864;28;20042;-74
2022/10/08 02:34:38;;;;;;;17.60;14.07;;;9.30;99.90;;;;;;5023501;28;20033;-74
2022/10/08 02:37:16;;;;;;;19.77;14.17;;;9.30;99.90;;;;;;5030182;28;20064;-74
2022/10/08 02:39:54;;;;;;;17.30;14.37;;;9.30;99.90;;;;;;5028564;28;20025;-74
2022/10/08 02:42:23;;;;;;;17.03;13.30;;;9.30;99.90;;;;;;5029685;28;20029;-74
2022/10/08 02:45:21;;;;;;;16.57;13.17;;;9.30;99.90;;;;;;5030759;28;20017;-78
2022/10/08 02:47:53;;;;;;;16.30;14.07;;;9.30;99.90;;;;;;5030967;28;20041;-76
2022/10/08 02:50:21;;;;;;;16.87;13.47;;;9.30;99.90;;;;;;5032157;28;20037;-76
2022/10/08 02:52:50;;;;;;;16.97;13.90;;;9.30;99.90;;;;;;5032184;28;20029;-76
2022/10/08 02:55:31;;;;;;;19.90;14.13;;;9.30;99.90;;;;;;5031224;28;20025;-78
2022/10/08 02:58:02;;;;;;;18.40;13.30;;;9.30;99.90;;;;;;5024043;28;20486;-78
2022/10/08 03:00:34;;;;;;;16.53;12.77;;;9.30;99.90;;;;;;5031054;28;20021;-78
2022/10/08 03:03:12;;;;;;;14.53;12.20;;;9.30;99.90;;;;;;5017064;28;20014;-78
2022/10/08 03:05:40;;;;;;;16.37;12.20;;;9.30;99.90;;;;;;5018052;28;20022;-78
2022/10/08 03:08:09;;;;;;;14.63;12.70;;;9.30;99.90;;;;;;5031059;28;20032;-78
2022/10/08 03:10:38;;;;;;;16.43;12.40;;;9.30;99.90;;;;;;5019442;28;20038;-78
2022/10/08 03:13:04;;;;;;;14.43;12.10;;;9.40;99.90;;;;;;5030058;28;20477;-78
2022/10/08 03:15:32;;;;;;;15.27;12.53;;;9.40;99.90;;;;;;5031126;28;20375;-78
2022/10/08 03:18:01;;;;;;;13.73;12.00;;;9.40;99.90;;;;;;5031124;28;20540;-78
2022/10/08 03:20:27;;;;;;;14.73;11.80;;;9.40;99.90;;;;;;5031395;28;20033;-78
2022/10/08 03:22:58;;;;;;;14.03;12.03;;;9.40;99.90;;;;;;5017481;28;20022;-78
2022/10/08 03:25:24;;;;;;;15.83;11.57;;;9.50;99.90;;;;;;5029764;28;20021;-78
2022/10/08 03:27:50;;;;;;;14.10;11.47;;;9.50;99.90;;;;;;5034206;28;20033;-78
2022/10/08 03:30:16;;;;;;;13.07;11.73;;;9.50;99.90;;;;;;5021725;28;20057;-78
2022/10/08 03:32:41;;;;;;;15.77;11.17;;;9.50;99.90;;;;;;5021942;28;20076;-78
2022/10/08 03:35:07;;;;;;;13.67;11.27;;;9.50;99.90;;;;;;5029187;28;20038;-78
2022/10/08 03:37:32;;;;;;;12.37;10.10;;;9.50;99.90;;;;;;5025496;28;20021;-78
2022/10/08 03:39:58;;;;;;;15.67;11.03;;;9.50;99.90;;;;;;5035115;28;20033;-78
2022/10/08 03:42:23;;;;;;;15.43;11.87;;;9.50;99.90;;;;;;5035199;28;20021;-78
2022/10/08 03:44:49;;;;;;;13.30;10.80;;;9.50;99.90;;;;;;5035343;28;20033;-78
2022/10/08 03:47:15;;;;;;;14.50;10.80;;;9.50;99.90;;;;;;5021184;28;20026;-78
2022/10/08 03:49:40;;;;;;;12.53;10.70;;;9.60;99.90;;;;;;5034732;28;20033;-78
2022/10/08 03:52:06;;;;;;;14.67;10.63;;;9.60;99.90;;;;;;5034784;28;20029;-78
2022/10/08 03:54:34;;;;;;;15.77;10.73;;;9.60;99.90;;;;;;5024805;28;20038;-75
2022/10/08 03:57:00;;;;;;;11.30;10.07;;;9.70;99.90;;;;;;5017892;28;20454;-75
2022/10/08 03:59:26;;;;;;;11.77;9.50;;;9.70;99.90;;;;;;5035244;28;20443;-75
2022/10/08 04:01:51;;;;;;;11.30;9.67;;;9.80;99.90;;;;;;5035480;28;20052;-75
2022/10/08 04:04:17;;;;;;;12.97;9.63;;;9.80;99.90;;;;;;5035381;28;20033;-75
2022/10/08 04:06:43;;;;;;;12.97;10.43;;;9.90;99.90;;;;;;5027071;28;20032;-75
2022/10/08 04:09:09;;;;;;;12.60;10.57;;;9.90;99.90;;;;;;5029626;28;20029;-75
2022/10/08 04:11:35;;;;;;;12.13;9.37;;;9.90;99.90;;;;;;5035383;28;20041;-75
2022/10/08 04:14:00;;;;;;;12.05;9.32;;;10.00;99.90;;;;;;5034848;28;20029;-75
2022/10/08 04:16:26;;;;;;;12.67;9.17;;;10.00;99.90;;;;;;5033684;28;20125;-75
2022/10/08 04:18:51;;;;;;;12.73;9.67;;;10.10;99.90;;;;;;5035102;28;20417;-75
2022/10/08 04:21:18;;;;;;;12.20;9.20;;;10.10;99.90;;;;;;5034993;28;20033;-75
2022/10/08 04:23:45;;;;;;;12.85;9.20;;;10.20;99.90;;;;;;5035054;28;20029;-75
2022/10/08 04:26:12;;;;;;;13.85;8.90;;;10.20;99.90;;;;;;5035005;28;20061;-75
2022/10/08 04:28:39;;;;;;;12.55;8.15;;;10.20;99.90;;;;;;5035855;28;20549;-78
2022/10/08 04:31:18;;;;;;;15.18;8.70;;;10.30;99.90;;;;;;5029652;28;20613;-78
2022/10/08 04:33:45;;;;;;;11.23;9.13;;;10.30;99.90;;;;;;5033737;28;20057;-78
2022/10/08 04:36:13;;;;;;;9.98;8.63;;;10.40;99.90;;;;;;5034088;28;20042;-78
2022/10/08 04:38:41;;;;;;;10.13;9.02;;;10.40;99.90;;;;;;5014709;28;20498;-75
2022/10/08 04:41:13;;;;;;;13.45;9.93;;;10.40;99.90;;;;;;5025222;28;20074;-75
2022/10/08 04:43:40;;;;;;;10.98;8.90;;;10.50;99.90;;;;;;5034925;28;20121;-75
2022/10/08 04:46:12;;;;;;;13.95;9.45;;;10.50;99.90;;;;;;5034621;28;20084;-75
2022/10/08 04:48:38;;;;;;;20.15;10.10;;;10.50;99.90;;;;;;5034408;28;20033;-75
2022/10/08 04:51:05;;;;;;;12.00;8.90;;;10.60;99.90;;;;;;5034487;28;20076;-75
2022/10/08 04:53:31;;;;;;;13.10;8.27;;;10.60;99.90;;;;;;5032641;28;20520;-75
2022/10/08 04:56:25;;;;;;;11.23;8.70;;;10.70;99.90;;;;;;5014816;28;20050;-75
2022/10/08 04:58:51;;;;;;;10.43;8.18;;;10.70;99.90;;;;;;5014367;28;20033;-75
2022/10/08 05:01:18;;;;;;;10.75;8.70;;;10.70;99.90;;;;;;5022695;28;20025;-75
2022/10/08 05:03:47;;;;;;;12.60;8.77;;;10.70;99.90;;;;;;5034426;28;20061;-75
2022/10/08 05:06:15;;;;;;;15.00;8.77;;;10.80;99.90;;;;;;5034087;28;20021;-75
2022/10/08 05:08:41;;;;;;;10.57;7.63;;;10.80;99.90;;;;;;5034022;28;20028;-75
2022/10/08 05:11:07;;;;;;;9.93;8.80;;;10.80;99.90;;;;;;5033873;28;20108;-75
2022/10/08 05:13:33;;;;;;;10.82;8.40;;;10.80;99.90;;;;;;5034069;28;20040;-78
2022/10/08 05:16:09;;;;;;;11.50;8.05;;;10.80;99.90;;;;;;5028638;28;20049;-78
2022/10/08 05:18:36;;;;;;;9.52;7.82;;;10.80;99.90;;;;;;5031682;28;20092;-76
2022/10/08 05:21:11;;;;;;;12.05;7.90;;;10.70;99.90;;;;;;5033777;28;20028;-76
2022/10/08 05:23:37;;;;;;;9.77;8.32;;;10.70;99.90;;;;;;5033476;28;20021;-76
2022/10/08 05:26:12;;;;;;;14.77;8.80;;;10.70;99.90;;;;;;5033510;28;20026;-76
2022/10/08 05:28:37;;;;;;;11.90;8.35;;;10.70;99.90;;;;;;5033691;28;20036;-76
2022/10/08 05:31:03;;;;;;;9.30;8.25;;;10.70;99.90;;;;;;5030035;28;20034;-76
2022/10/08 05:33:28;;;;;;;10.88;8.77;;;10.60;99.90;;;;;;5023512;28;20425;-76
2022/10/08 05:35:54;;;;;;;10.25;8.05;;;10.60;99.90;;;;;;5033465;28;20056;-76
2022/10/08 05:38:19;;;;;;;14.15;8.43;;;10.60;99.90;;;;;;5035780;28;20104;-76
2022/10/08 05:40:45;;;;;;;14.82;9.45;;;10.60;99.90;;;;;;5035584;28;20028;-76
2022/10/08 05:43:11;;;;;;;14.50;9.00;;;10.60;99.90;;;;;;5032220;28;20029;-76
2022/10/08 05:45:36;;;;;;;12.77;8.48;;;10.50;99.90;;;;;;5033459;28;20036;-76
2022/10/08 05:48:02;;;;;;;11.50;8.25;;;10.60;99.90;;;;;;5046097;28;20029;-76
2022/10/08 05:50:27;;;;;;;12.55;8.27;;;10.60;99.90;;;;;;5035053;28;20034;-76
2022/10/08 05:52:53;;;;;;;10.07;7.90;;;10.60;99.90;;;;;;5038482;28;20102;-76
2022/10/08 05:55:18;;;;;;;10.88;7.78;;;10.60;99.90;;;;;;5033514;28;20033;-76
2022/10/08 05:57:44;;;;;;;10.60;7.47;;;10.60;99.90;;;;;;5033423;28;20489;-76
2022/10/08 06:00:11;;;;;;;10.02;8.18;;;10.60;99.90;;;;;;5025498;28;20025;-75
2022/10/08 06:02:36;;;;;;;11.52;8.93;;;10.60;99.90;;;;;;5025823;28;20729;-74
2022/10/08 06:05:02;;;;;;;14.18;8.73;;;10.70;99.90;;;;;;5022516;28;20601;-75
2022/10/08 06:07:27;;;;;;;13.00;8.85;;;10.70;99.90;;;;;;5011780;28;20363;-75
2022/10/08 06:09:53;;;;;;;9.60;8.05;;;10.80;99.90;;;;;;5011734;28;20092;-75
2022/10/08 06:12:19;;;;;;;15.90;8.90;;;10.90;99.90;;;;;;5030435;28;20040;-75
2022/10/08 06:14:44;;;;;;;9.93;8.18;;;11.00;99.90;;;;;;5023884;28;20414;-75
2022/10/08 06:17:10;;;;;;;12.70;9.02;;;11.10;99.90;;;;;;5016356;28;20483;-75
2022/10/08 06:19:36;;;;;;;9.63;7.32;;;11.20;99.90;;;;;;5023581;28;20021;-75
2022/10/08 06:22:05;;;;;;;10.63;8.13;;;11.30;99.90;;;;;;5025181;28;20068;-75
2022/10/08 06:24:31;;;;;;;8.85;7.63;;;11.30;99.90;;;;;;5025974;28;20022;-77
2022/10/08 06:26:56;;;;;;;11.57;8.63;;;11.40;99.90;;;;;;5024532;28;20391;-75
2022/10/08 06:29:22;;;;;;;11.35;7.60;;;11.50;99.90;;;;;;5018449;28;20036;-75
2022/10/08 06:31:48;;;;;;;12.50;8.75;;;11.60;99.90;;;;;;5026177;28;20075;-83
2022/10/08 06:34:14;;;;;;;14.30;7.60;;;11.70;99.90;;;;;;5027754;28;20013;-76
2022/10/08 06:36:39;;;;;;;14.40;8.23;;;11.80;99.90;;;;;;5021972;28;20104;-75
2022/10/08 06:39:09;;;;;;;10.05;7.40;;;11.90;99.90;;;;;;5031737;28;20373;-76
2022/10/08 06:41:37;;;;;;;9.68;7.20;;;12.00;99.90;;;;;;5036905;28;20021;-76
2022/10/08 06:44:05;;;;;;;12.57;7.32;;;12.10;99.90;;;;;;5038308;28;20459;-76
2022/10/08 06:46:32;;;;;;;12.23;6.72;;;12.20;99.90;;;;;;5037160;28;20019;-76
2022/10/08 06:48:59;;;;;;;9.45;7.20;;;12.20;99.90;;;;;;5034632;28;20080;-75
2022/10/08 06:51:25;;;;;;;11.95;6.95;;;12.30;99.90;;;;;;5036276;28;20037;-75
2022/10/08 06:53:55;;;;;;;9.60;6.95;;;12.40;99.90;;;;;;5039747;28;20032;-76
2022/10/08 06:56:22;;;;;;;12.15;6.80;;;12.50;99.90;;;;;;5041865;28;20544;-76
2022/10/08 06:58:49;;;;;;;10.48;6.53;;;12.60;99.90;;;;;;5042963;28;20076;-76
2022/10/08 07:01:22;;;;;;;12.27;6.28;;;12.60;99.90;;;;;;5042395;28;20469;-76
2022/10/08 07:03:50;;;;;;;8.30;6.28;;;12.60;99.90;;;;;;5049072;28;20466;-76
2022/10/08 07:06:16;;;;;;;7.78;6.97;;;12.70;99.90;;;;;;5041955;28;20084;-76
2022/10/08 07:08:41;;;;;;;13.40;6.38;;;12.80;99.90;;;;;;5041471;28;20028;-76
2022/10/08 07:11:12;;;;;;;10.10;6.78;;;12.90;99.90;;;;;;5044886;28;20166;-79
2022/10/08 07:13:39;;;;;;;10.93;6.93;;;12.90;99.90;;;;;;5025437;28;20445;-76
2022/10/08 07:16:10;;;;;;;11.90;7.28;;;13.00;99.90;;;;;;5034823;28;20081;-77
2022/10/08 07:18:37;;;;;;;12.73;7.03;;;13.10;99.90;;;;;;5035234;28;20351;-76
2022/10/08 07:21:04;;;;;;;12.02;7.22;;;13.20;99.90;;;;;;5035243;28;20032;-76
2022/10/08 07:23:30;;;;;;;9.98;7.72;;;13.20;99.90;;;;;;5039194;28;20025;-76
2022/10/08 07:25:56;;;;;;;11.48;8.00;;;13.30;99.90;;;;;;5035898;28;20022;-76
2022/10/08 07:28:23;;;;;;;13.10;7.70;;;13.40;99.90;;;;;;5024227;28;20021;-76
2022/10/08 07:30:48;;;;;;;11.73;6.93;;;13.40;99.90;;;;;;5032818;28;20168;-76
2022/10/08 07:33:14;;;;;;;13.93;6.78;;;13.50;99.90;;;;;;5021361;28;20128;-76
2022/10/08 07:35:40;;;;;;;7.90;6.40;;;13.60;99.90;;;;;;5036981;28;20025;-77
2022/10/08 07:38:05;;;;;;;9.35;6.70;;;13.60;99.90;;;;;;5049530;28;20319;-77
2022/10/08 07:40:34;;;;;;;12.82;6.72;;;13.70;99.90;;;;;;5043764;28;20026;-76
2022/10/08 07:43:01;;;;;;;14.27;7.60;;;13.80;99.90;;;;;;5015064;28;20383;-76
2022/10/08 07:45:26;;;;;;;10.75;6.75;;;13.80;99.90;;;;;;5020987;28;20068;-76
2022/10/08 07:47:52;;;;;;;9.80;6.53;;;13.90;99.90;;;;;;5034811;28;20044;-76
2022/10/08 07:50:18;;;;;;;13.50;7.30;;;13.90;99.90;;;;;;5022568;28;20032;-77
2022/10/08 07:52:43;;;;;;;9.55;7.28;;;14.00;99.90;;;;;;5035455;28;20029;-77
2022/10/08 07:55:09;;;;;;;14.63;7.30;;;14.10;99.90;;;;;;5030887;28;20878;-77
2022/10/08 07:57:34;;;;;;;10.88;6.63;;;14.10;99.90;;;;;;5015523;28;20033;-77
2022/10/08 08:00:00;;;;;;;11.80;6.55;;;14.20;99.90;;;;;;5038217;28;20450;-81
2022/10/08 08:02:25;;;;;;;9.77;6.35;;;14.20;99.90;;;;;;5040462;28;20029;-81
2022/10/08 08:04:51;;;;;;;9.00;5.88;;;14.30;99.90;;;;;;5043164;28;20056;-81
2022/10/08 08:07:16;;;;;;;13.80;6.50;;;14.30;99.90;;;;;;5034208;28;20033;-81
2022/10/08 08:09:42;;;;;;;12.52;6.07;;;14.30;99.90;;;;;;5016878;28;20050;-81
2022/10/08 08:12:08;;;;;;;8.80;5.72;;;14.40;99.90;;;;;;5016563;28;20030;-81
2022/10/08 08:14:33;;;;;;;8.93;5.70;;;14.40;99.90;;;;;;5019670;28;20056;-81
2022/10/08 08:16:59;;;;;;;11.35;6.28;;;14.50;99.90;;;;;;5031231;28;20367;-81
2022/10/08 08:19:26;;;;;;;9.85;6.10;;;14.60;99.90;;;;;;5024738;28;20026;-81
2022/10/08 08:21:51;;;;;;;10.40;6.28;;;14.70;99.90;;;;;;5030615;28;20028;-81
2022/10/08 08:24:17;;;;;;;12.20;6.40;;;14.70;99.90;;;;;;5029864;28;20029;-81
2022/10/08 08:26:43;;;;;;;8.90;5.03;;;14.80;99.90;;;;;;5027103;28;20030;-81
2022/10/08 08:29:15;;;;;;;10.23;5.60;;;14.90;99.90;;;;;;5028144;28;20021;-81
2022/10/08 08:31:43;;;;;;;10.43;5.90;;;15.00;99.90;;;;;;5024139;28;20425;-81
2022/10/08 08:34:14;;;;;;;14.65;6.18;;;15.10;99.90;;;;;;5028240;28;20017;-81
2022/10/08 08:36:43;;;;;;;12.65;5.75;;;15.20;99.90;;;;;;5030432;28;20101;-86
2022/10/08 08:39:17;;;;;;;11.70;5.70;;;15.30;99.90;;;;;;5033650;28;20363;-81
2022/10/08 08:41:45;;;;;;;12.53;5.70;;;15.50;99.90;;;;;;5025209;28;20025;-78
2022/10/08 08:44:21;;;;;;;8.95;5.68;;;15.60;99.90;;;;;;5026910;28;20474;-82
2022/10/08 08:46:57;;;;;;;13.23;6.10;;;15.70;99.90;;;;;;5020166;28;20025;-82
2022/10/08 08:49:31;;;;;;;9.43;5.75;;;15.90;99.90;;;;;;5025700;28;20160;-81
2022/10/08 08:52:00;;;;;;;11.43;5.80;;;16.00;99.90;;;;;;5028677;28;20025;-82
2022/10/08 08:54:25;;;;;;;9.77;5.75;;;16.10;99.90;;;;;;5020966;28;20021;-81
2022/10/08 08:56:54;;;;;;;13.52;5.38;;;16.30;99.90;;;;;;5025989;28;20052;-82
2022/10/08 08:59:25;;;;;;;11.55;5.68;;;16.40;99.90;;;;;;5023128;28;20018;-82
2022/10/08 09:01:55;;;;;;;10.05;5.68;;;16.50;99.90;;;;;;5023944;28;20018;-82
2022/10/08 09:04:32;;;;;;;9.25;5.38;;;16.50;99.90;;;;;;5029667;28;20026;-82
2022/10/08 09:06:59;;;;;;;9.38;5.60;;;16.60;99.90;;;;;;5028975;28;20041;-82
2022/10/08 09:09:32;;;;;;;11.55;6.28;;;16.60;99.90;;;;;;5019253;28;20017;-82
2022/10/08 09:11:58;;;;;;;9.48;5.35;;;16.60;99.90;;;;;;5020590;28;20344;-82
2022/10/08 09:14:55;;;;;;;13.02;5.07;;;16.60;99.90;;;;;;5024551;28;20080;-82
2022/10/08 09:17:31;;;;;;;10.27;5.32;;;16.70;99.90;;;;;;5025314;28;20037;-82
2022/10/08 09:19:57;;;;;;;11.95;4.50;;;16.60;99.90;;;;;;5025788;28;20374;-82
2022/10/08 09:22:30;;;;;;;9.10;5.63;;;16.60;99.90;;;;;;5024015;28;20025;-81
2022/10/08 09:25:02;;;;;;;8.88;5.30;;;16.50;99.90;;;;;;5024796;28;20084;-82
2022/10/08 09:27:47;;;;;;;11.63;6.10;;;16.50;99.90;;;;;;5025135;28;20470;-82
2022/10/08 09:30:31;;;;;;;12.98;5.68;;;16.40;99.90;;;;;;5026532;28;21484;-82
2022/10/08 09:33:01;;;;;;;14.80;6.20;;;16.30;99.90;;;;;;5027774;28;20382;-82
2022/10/08 09:35:27;;;;;;;11.18;6.05;;;16.40;99.90;;;;;;5025755;28;20113;-82
2022/10/08 09:37:55;;;;;;;12.40;5.82;;;16.40;99.90;;;;;;5024411;28;20021;-82
2022/10/08 09:40:25;;;;;;;9.68;5.80;;;16.40;99.90;;;;;;5025518;28;20026;-82
2022/10/08 09:43:06;;;;;;;10.38;5.68;;;16.40;99.90;;;;;;5022764;28;20025;-82
2022/10/08 09:45:40;;;;;;;16.15;6.55;;;16.50;99.90;;;;;;5025268;28;20529;-82
2022/10/08 09:48:26;;;;;;;8.82;5.50;;;16.50;99.90;;;;;;5024512;28;20036;-82
2022/10/08 09:51:14;;;;;;;11.73;6.15;;;16.40;99.90;;;;;;5023791;28;20230;-82
2022/10/08 09:53:51;;;;;;;12.18;6.28;;;16.50;99.90;;;;;;5026060;28;20029;-82
2022/10/08 09:56:26;;;;;;;11.02;6.28;;;16.40;99.90;;;;;;5026209;28;20134;-82
2022/10/08 09:58:56;;;;;;;10.23;5.82;;;16.30;99.90;;;;;;5022538;28;20351;-82
2022/10/08 10:01:23;;;;;;;15.88;7.28;;;16.30;99.90;;;;;;5028857;28;20049;-81
2022/10/08 10:03:55;;;;;;;13.00;6.80;;;16.30;99.90;;;;;;5027688;28;20025;-81
2022/10/08 10:06:32;;;;;;;10.77;6.57;;;16.20;99.90;;;;;;5030282;28;20032;-84
2022/10/08 10:09:09;;;;;;;10.25;6.25;;;16.30;99.90;;;;;;5029970;28;20291;-82
2022/10/08 10:11:42;;;;;;;15.35;6.43;;;16.20;99.90;;;;;;5022085;28;20025;-82
2022/10/08 10:14:23;;;;;;;11.52;6.60;;;16.20;99.90;;;;;;5027112;28;20030;-82
2022/10/08 10:16:58;;;;;;;16.52;6.28;;;16.20;99.90;;;;;;5017388;28;20112;-82
2022/10/08 10:19:31;;;;;;;13.25;6.32;;;16.30;99.90;;;;;;5030952;28;20026;-82
2022/10/08 10:22:15;;;;;;;14.52;6.20;;;16.30;99.90;;;;;;5030996;28;20060;-82
2022/10/08 10:25:03;;;;;;;11.73;6.13;;;16.40;99.90;;;;;;5030580;28;20036;-82
2022/10/08 10:27:41;;;;;;;13.65;6.60;;;16.50;99.90;;;;;;5029619;28;20030;-82
2022/10/08 10:30:23;;;;;;;22.40;7.05;;;16.60;99.90;;;;;;5030162;28;20029;-77
2022/10/08 10:32:52;;;;;;;13.32;6.53;;;16.50;99.90;;;;;;5016275;28;20045;-77
2022/10/08 10:35:27;;;;;;;15.00;7.25;;;16.50;99.90;;;;;;5028497;28;20106;-77
2022/10/08 10:38:18;;;;;;;15.48;6.78;;;16.50;99.90;;;;;;5029889;28;20030;-77
2022/10/08 10:40:49;;;;;;;10.23;6.32;;;16.50;99.90;;;;;;5022911;28;20547;-76
2022/10/08 10:43:36;;;;;;;10.90;6.45;;;16.50;99.90;;;;;;5019773;28;20033;-76
2022/10/08 10:46:20;;;;;;;11.00;6.40;;;16.50;99.90;;;;;;5024100;28;20532;-76
2022/10/08 10:48:45;;;;;;;9.70;6.10;;;16.50;99.90;;;;;;5012768;28;20101;-77
2022/10/08 10:51:20;;;;;;;14.82;6.90;;;16.60;99.90;;;;;;5029403;28;20108;-76
2022/10/08 10:53:52;;;;;;;11.00;7.22;;;16.60;99.90;;;;;;5032354;28;20104;-76
2022/10/08 10:56:20;;;;;;;11.63;6.07;;;16.60;99.90;;;;;;5036328;28;20116;-76
2022/10/08 10:59:07;;;;;;;13.25;7.10;;;16.70;99.90;;;;;;5038088;28;20041;-76
2022/10/08 11:01:54;;;;;;;11.25;6.28;;;16.70;99.90;;;;;;5035411;28;20036;-76
2022/10/08 11:04:51;;;;;;;13.38;6.85;;;16.70;99.90;;;;;;5037295;28;20021;-76
2022/10/08 11:07:44;;;;;;;17.42;6.90;;;16.70;99.90;;;;;;5037955;28;20119;-76
2022/10/08 11:10:18;;;;;;;14.18;7.57;;;16.70;99.90;;;;;;5037859;28;20025;-77
2022/10/08 11:13:13;;;;;;;16.30;7.20;;;16.70;99.90;;;;;;5037119;28;20044;-76
2022/10/08 11:16:05;;;;;;;15.35;7.22;;;16.60;99.90;;;;;;5036295;28;20076;-76
2022/10/08 11:18:45;;;;;;;19.00;7.82;;;16.60;99.90;;;;;;5031711;28;20087;-76
2022/10/08 11:21:48;;;;;;;15.13;7.53;;;16.60;99.90;;;;;;5035973;28;20059;-76
2022/10/08 11:24:23;;;;;;;13.10;6.45;;;16.50;99.90;;;;;;5027727;28;20032;-76
2022/10/08 11:26:55;;;;;;;12.80;6.72;;;16.50;99.90;;;;;;5025103;28;20075;-76
2022/10/08 11:29:35;;;;;;;12.98;7.50;;;16.50;99.90;;;;;;5009006;28;20050;-76
2022/10/08 11:32:01;;;;;;;14.98;6.68;;;16.40;99.90;;;;;;5014016;28;20036;-76
2022/10/08 11:34:33;;;;;;;16.10;7.50;;;16.40;99.90;;;;;;5010307;28;20022;-76
2022/10/08 11:37:23;;;;;;;12.40;6.88;;;16.40;99.90;;;;;;5045526;28;20034;-77
2022/10/08 11:40:01;;;;;;;17.67;7.40;;;16.40;99.90;;;;;;5009394;28;20018;-77
2022/10/08 11:42:44;;;;;;;15.90;6.65;;;16.40;99.90;;;;;;5009212;28;20082;-77
2022/10/08 11:45:22;;;;;;;14.85;7.43;;;16.40;99.90;;;;;;5022061;28;20026;-76
2022/10/08 11:47:53;;;;;;;15.88;7.85;;;16.40;99.90;;;;;;5024707;28;20042;-76
2022/10/08 11:50:41;;;;;;;11.52;6.50;;;16.40;99.90;;;;;;5024715;28;20024;-76
2022/10/08 11:53:09;;;;;;;10.60;6.43;;;16.40;99.90;;;;;;5029069;28;20109;-76
2022/10/08 11:55:36;;;;;;;14.70;6.20;;;16.40;99.90;;;;;;5027948;28;20104;-82
2022/10/08 11:58:05;;;;;;;14.95;7.00;;;16.40;99.90;;;;;;5027112;28;20072;-82
2022/10/08 12:00:43;;;;;;;16.88;6.88;;;16.50;99.90;;;;;;5031300;28;20033;-82
2022/10/08 12:03:30;;;;;;;13.63;6.95;;;16.50;99.90;;;;;;5030131;28;20041;-82
2022/10/08 12:05:59;;;;;;;12.07;7.28;;;16.50;99.90;;;;;;5029761;28;20024;-82
2022/10/08 12:08:50;;;;;;;21.33;7.47;;;16.60;99.90;;;;;;5034064;28;20130;-82
2022/10/08 12:11:31;;;;;;;14.68;7.32;;;16.50;99.90;;;;;;5040417;28;20041;-82
2022/10/08 12:14:12;;;;;;;18.13;8.48;;;16.50;99.90;;;;;;5035541;28;20029;-76
2022/10/08 12:16:49;;;;;;;17.00;7.80;;;16.40;99.90;;;;;;5037127;28;20037;-77
2022/10/08 12:19:41;;;;;;;17.17;7.95;;;16.40;99.90;;;;;;5031673;28;20041;-77
2022/10/08 12:22:13;;;;;;;19.05;7.80;;;16.40;99.90;;;;;;5014414;28;20482;-77
2022/10/08 12:24:38;;;;;;;17.58;8.40;;;16.30;99.90;;;;;;5035724;28;20037;-76
2022/10/08 12:27:16;;;;;;;16.30;7.75;;;16.30;99.90;;;;;;5036870;28;20029;-76
2022/10/08 12:29:55;;;;;;;14.82;7.53;;;16.30;99.90;;;;;;5034331;28;20060;-76
2022/10/08 12:32:26;;;;;;;14.73;7.15;;;16.20;99.90;;;;;;5037077;28;20442;-77
2022/10/08 12:34:53;;;;;;;16.48;7.50;;;16.30;99.90;;;;;;5038958;28;20025;-77
2022/10/08 12:37:40;;;;;;;14.70;7.18;;;16.20;99.90;;;;;;5034479;28;20030;-78
2022/10/08 12:40:21;;;;;;;17.20;6.75;;;16.20;99.90;;;;;;5036823;28;20025;-77
2022/10/08 12:42:51;;;;;;;20.05;7.65;;;16.20;99.90;;;;;;5038641;28;20033;-77
2022/10/08 12:45:32;;;;;;;17.88;7.32;;;16.10;99.90;;;;;;5035028;28;20021;-77
2022/10/08 12:48:41;;;;;;;16.05;8.73;;;16.10;99.90;;;;;;5036172;28;20021;-76
2022/10/08 12:51:42;;;;;;;18.80;9.13;;;16.10;99.90;;;;;;5038356;28;20021;-76
2022/10/08 12:54:20;;;;;;;15.40;8.93;;;16.00;99.90;;;;;;5036210;28;20100;-76
2022/10/08 12:56:46;;;;;;;16.40;8.85;;;16.00;99.90;;;;;;5035960;28;20040;-80
2022/10/08 12:59:12;;;;;;;18.70;9.65;;;16.00;99.90;;;;;;5031661;28;20041;-81
2022/10/08 13:01:42;;;;;;;16.20;9.32;;;16.10;99.90;;;;;;5031470;28;20057;-80
2022/10/08 13:04:22;;;;;;;16.23;10.48;;;16.00;99.90;;;;;;5028041;28;20065;-81